sensor_id;sensor_type;location;lat;lon;timestamp;temperature;humidity
39347;DHT22;26262;49.836;6.632;2022-07-23T00:01:55;19.10;99.90
39347;DHT22;26262;49.836;6.632;2022-07-23T00:04:21;19.10;99.90
39347;DHT22;26262;49.836;6.632;2022-07-23T00:06:46;19.30;99.90
39347;DHT22;26262;49.836;6.632;2022-07-23T00:09:12;19.40;99.90
39347;DHT22;26262;49.836;6.632;2022-07-23T00:11:37;19.50;99.90
39347;DHT22;26262;49.836;6.632;2022-07-23T00:14:03;19.60;99.90
39347;DHT22;26262;49.836;6.632;2022-07-23T00:16:29;19.60;99.90
39347;DHT22;26262;49.836;6.632;2022-07-23T00:18:54;19.30;99.90
39347;DHT22;26262;49.836;6.632;2022-07-23T00:21:20;19.20;99.90
39347;DHT22;26262;49.836;6.632;2022-07-23T00:23:45;19.20;99.90
39347;DHT22;26262;49.836;6.632;2022-07-23T00:26:11;19.30;99.90
39347;DHT22;26262;49.836;6.632;2022-07-23T00:28:36;19.10;99.90
39347;DHT22;26262;49.836;6.632;2022-07-23T00:31:02;18.70;99.90
39347;DHT22;26262;49.836;6.632;2022-07-23T00:33:28;18.60;99.90
39347;DHT22;26262;49.836;6.632;2022-07-23T00:35:53;18.50;99.90
39347;DHT22;26262;49.836;6.632;2022-07-23T00:38:19;18.50;99.90
39347;DHT22;26262;49.836;6.632;2022-07-23T00:40:44;18.40;99.90
39347;DHT22;26262;49.836;6.632;2022-07-23T00:43:10;18.40;99.90
39347;DHT22;26262;49.836;6.632;2022-07-23T00:45:35;18.40;99.90
39347;DHT22;26262;49.836;6.632;2022-07-23T00:48:01;18.40;99.90
39347;DHT22;26262;49.836;6.632;2022-07-23T00:50:27;18.40;99.90
39347;DHT22;26262;49.836;6.632;2022-07-23T00:52:53;18.40;99.90
39347;DHT22;26262;49.836;6.632;2022-07-23T00:55:19;18.40;99.90
39347;DHT22;26262;49.836;6.632;2022-07-23T00:57:44;18.30;99.90
39347;DHT22;26262;49.836;6.632;2022-07-23T01:00:12;18.40;99.90
39347;DHT22;26262;49.836;6.632;2022-07-23T01:02:38;18.40;99.90
39347;DHT22;26262;49.836;6.632;2022-07-23T01:05:05;18.40;99.90
39347;DHT22;26262;49.836;6.632;2022-07-23T01:07:30;18.30;99.90
39347;DHT22;26262;49.836;6.632;2022-07-23T01:09:56;18.40;99.90
39347;DHT22;26262;49.836;6.632;2022-07-23T01:12:23;18.50;99.90
39347;DHT22;26262;49.836;6.632;2022-07-23T01:14:59;18.50;99.90
39347;DHT22;26262;49.836;6.632;2022-07-23T01:17:25;18.60;99.90
39347;DHT22;26262;49.836;6.632;2022-07-23T01:19:51;18.50;99.90
39347;DHT22;26262;49.836;6.632;2022-07-23T01:22:18;18.60;99.90
39347;DHT22;26262;49.836;6.632;2022-07-23T01:24:44;18.60;99.90
39347;DHT22;26262;49.836;6.632;2022-07-23T01:27:10;18.40;99.90
39347;DHT22;26262;49.836;6.632;2022-07-23T01:29:35;18.50;99.90
39347;DHT22;26262;49.836;6.632;2022-07-23T01:32:01;18.60;99.90
39347;DHT22;26262;49.836;6.632;2022-07-23T01:34:26;18.80;99.90
39347;DHT22;26262;49.836;6.632;2022-07-23T01:36:52;18.90;99.90
39347;DHT22;26262;49.836;6.632;2022-07-23T01:39:17;18.80;99.90
39347;DHT22;26262;49.836;6.632;2022-07-23T01:41:43;18.90;99.90
39347;DHT22;26262;49.836;6.632;2022-07-23T01:44:08;19.00;99.90
39347;DHT22;26262;49.836;6.632;2022-07-23T01:46:34;19.00;99.90
39347;DHT22;26262;49.836;6.632;2022-07-23T01:49:00;19.00;99.90
39347;DHT22;26262;49.836;6.632;2022-07-23T01:51:26;19.00;99.90
39347;DHT22;26262;49.836;6.632;2022-07-23T01:53:51;19.00;99.90
39347;DHT22;26262;49.836;6.632;2022-07-23T01:56:17;18.80;99.90
39347;DHT22;26262;49.836;6.632;2022-07-23T01:58:45;18.90;99.90
39347;DHT22;26262;49.836;6.632;2022-07-23T02:01:11;18.80;99.90
39347;DHT22;26262;49.836;6.632;2022-07-23T02:03:36;18.80;99.90
39347;DHT22;26262;49.836;6.632;2022-07-23T02:06:02;18.90;99.90
39347;DHT22;26262;49.836;6.632;2022-07-23T02:08:27;18.70;99.90
39347;DHT22;26262;49.836;6.632;2022-07-23T02:10:53;18.70;99.90
39347;DHT22;26262;49.836;6.632;2022-07-23T02:13:18;18.50;99.90
39347;DHT22;26262;49.836;6.632;2022-07-23T02:15:48;18.60;99.90
39347;DHT22;26262;49.836;6.632;2022-07-23T02:18:14;18.70;99.90
39347;DHT22;26262;49.836;6.632;2022-07-23T02:20:39;18.20;99.90
39347;DHT22;26262;49.836;6.632;2022-07-23T02:23:05;18.00;99.90
39347;DHT22;26262;49.836;6.632;2022-07-23T02:25:32;18.00;99.90
39347;DHT22;26262;49.836;6.632;2022-07-23T02:27:57;18.10;99.90
39347;DHT22;26262;49.836;6.632;2022-07-23T02:30:23;18.10;99.90
39347;DHT22;26262;49.836;6.632;2022-07-23T02:32:49;18.10;99.90
39347;DHT22;26262;49.836;6.632;2022-07-23T02:35:14;18.10;99.90
39347;DHT22;26262;49.836;6.632;2022-07-23T02:37:40;18.20;99.90
39347;DHT22;26262;49.836;6.632;2022-07-23T02:40:05;18.20;99.90
39347;DHT22;26262;49.836;6.632;2022-07-23T02:42:31;18.30;99.90
39347;DHT22;26262;49.836;6.632;2022-07-23T02:44:56;18.20;99.90
39347;DHT22;26262;49.836;6.632;2022-07-23T02:47:22;18.10;99.90
39347;DHT22;26262;49.836;6.632;2022-07-23T02:49:47;18.10;99.90
39347;DHT22;26262;49.836;6.632;2022-07-23T02:52:13;17.80;99.90
39347;DHT22;26262;49.836;6.632;2022-07-23T02:54:39;17.50;99.90
39347;DHT22;26262;49.836;6.632;2022-07-23T02:57:05;17.30;99.90
39347;DHT22;26262;49.836;6.632;2022-07-23T02:59:30;17.40;99.90
39347;DHT22;26262;49.836;6.632;2022-07-23T03:01:56;17.30;99.90
39347;DHT22;26262;49.836;6.632;2022-07-23T03:04:22;17.40;99.90
39347;DHT22;26262;49.836;6.632;2022-07-23T03:06:47;17.50;99.90
39347;DHT22;26262;49.836;6.632;2022-07-23T03:09:13;17.60;99.90
39347;DHT22;26262;49.836;6.632;2022-07-23T03:11:38;17.70;99.90
39347;DHT22;26262;49.836;6.632;2022-07-23T03:14:04;17.70;99.90
39347;DHT22;26262;49.836;6.632;2022-07-23T03:16:31;17.80;99.90
39347;DHT22;26262;49.836;6.632;2022-07-23T03:18:56;17.70;99.90
39347;DHT22;26262;49.836;6.632;2022-07-23T03:21:22;17.80;99.90
39347;DHT22;26262;49.836;6.632;2022-07-23T03:23:47;17.50;99.90
39347;DHT22;26262;49.836;6.632;2022-07-23T03:26:13;17.50;99.90
39347;DHT22;26262;49.836;6.632;2022-07-23T03:28:38;17.60;99.90
39347;DHT22;26262;49.836;6.632;2022-07-23T03:31:04;17.40;99.90
39347;DHT22;26262;49.836;6.632;2022-07-23T03:33:29;17.50;99.90
39347;DHT22;26262;49.836;6.632;2022-07-23T03:35:55;17.30;99.90
39347;DHT22;26262;49.836;6.632;2022-07-23T03:38:20;17.30;99.90
39347;DHT22;26262;49.836;6.632;2022-07-23T03:40:46;17.20;99.90
39347;DHT22;26262;49.836;6.632;2022-07-23T03:43:12;17.10;99.90
39347;DHT22;26262;49.836;6.632;2022-07-23T03:45:37;17.00;99.90
39347;DHT22;26262;49.836;6.632;2022-07-23T03:48:03;16.80;99.90
39347;DHT22;26262;49.836;6.632;2022-07-23T03:50:28;16.80;99.90
39347;DHT22;26262;49.836;6.632;2022-07-23T03:52:54;16.70;99.90
39347;DHT22;26262;49.836;6.632;2022-07-23T03:55:19;16.70;99.90
39347;DHT22;26262;49.836;6.632;2022-07-23T03:57:45;16.60;99.90
39347;DHT22;26262;49.836;6.632;2022-07-23T04:00:11;16.70;99.90
39347;DHT22;26262;49.836;6.632;2022-07-23T04:02:38;16.90;99.90
39347;DHT22;26262;49.836;6.632;2022-07-23T04:05:04;17.00;99.90
39347;DHT22;26262;49.836;6.632;2022-07-23T04:07:30;16.90;99.90
39347;DHT22;26262;49.836;6.632;2022-07-23T04:09:56;16.80;99.90
39347;DHT22;26262;49.836;6.632;2022-07-23T04:12:23;16.70;99.90
39347;DHT22;26262;49.836;6.632;2022-07-23T04:14:48;16.50;99.90
39347;DHT22;26262;49.836;6.632;2022-07-23T04:17:14;16.60;99.90
39347;DHT22;26262;49.836;6.632;2022-07-23T04:19:39;16.50;99.90
39347;DHT22;26262;49.836;6.632;2022-07-23T04:22:07;16.50;99.90
39347;DHT22;26262;49.836;6.632;2022-07-23T04:24:33;16.30;99.90
39347;DHT22;26262;49.836;6.632;2022-07-23T04:26:59;16.50;99.90
39347;DHT22;26262;49.836;6.632;2022-07-23T04:29:25;16.30;99.90
39347;DHT22;26262;49.836;6.632;2022-07-23T04:31:50;16.50;99.90
39347;DHT22;26262;49.836;6.632;2022-07-23T04:34:16;16.70;99.90
39347;DHT22;26262;49.836;6.632;2022-07-23T04:36:41;16.80;99.90
39347;DHT22;26262;49.836;6.632;2022-07-23T04:39:07;16.70;99.90
39347;DHT22;26262;49.836;6.632;2022-07-23T04:41:33;16.70;99.90
39347;DHT22;26262;49.836;6.632;2022-07-23T04:43:59;16.80;99.90
39347;DHT22;26262;49.836;6.632;2022-07-23T04:46:25;16.90;99.90
39347;DHT22;26262;49.836;6.632;2022-07-23T04:48:51;17.00;99.90
39347;DHT22;26262;49.836;6.632;2022-07-23T04:51:16;16.70;99.90
39347;DHT22;26262;49.836;6.632;2022-07-23T04:53:42;16.90;99.90
39347;DHT22;26262;49.836;6.632;2022-07-23T04:56:07;16.90;99.90
39347;DHT22;26262;49.836;6.632;2022-07-23T04:58:33;16.90;99.90
39347;DHT22;26262;49.836;6.632;2022-07-23T05:00:58;17.00;99.90
39347;DHT22;26262;49.836;6.632;2022-07-23T05:03:24;17.10;99.90
39347;DHT22;26262;49.836;6.632;2022-07-23T05:05:49;17.20;99.90
39347;DHT22;26262;49.836;6.632;2022-07-23T05:08:15;17.10;99.90
39347;DHT22;26262;49.836;6.632;2022-07-23T05:10:41;17.10;99.90
39347;DHT22;26262;49.836;6.632;2022-07-23T05:13:06;17.10;99.90
39347;DHT22;26262;49.836;6.632;2022-07-23T05:15:32;17.20;99.90
39347;DHT22;26262;49.836;6.632;2022-07-23T05:17:57;17.10;99.90
39347;DHT22;26262;49.836;6.632;2022-07-23T05:20:23;17.00;99.90
39347;DHT22;26262;49.836;6.632;2022-07-23T05:22:48;16.90;99.90
39347;DHT22;26262;49.836;6.632;2022-07-23T05:25:14;17.10;99.90
39347;DHT22;26262;49.836;6.632;2022-07-23T05:27:39;17.20;99.90
39347;DHT22;26262;49.836;6.632;2022-07-23T05:30:05;17.10;99.90
39347;DHT22;26262;49.836;6.632;2022-07-23T05:32:32;17.10;99.90
39347;DHT22;26262;49.836;6.632;2022-07-23T05:34:57;17.30;99.90
39347;DHT22;26262;49.836;6.632;2022-07-23T05:37:23;17.50;99.90
39347;DHT22;26262;49.836;6.632;2022-07-23T05:39:49;17.50;99.90
39347;DHT22;26262;49.836;6.632;2022-07-23T05:42:14;17.60;99.90
39347;DHT22;26262;49.836;6.632;2022-07-23T05:44:40;17.70;99.90
39347;DHT22;26262;49.836;6.632;2022-07-23T05:47:05;17.90;99.90
39347;DHT22;26262;49.836;6.632;2022-07-23T05:49:31;18.00;99.90
39347;DHT22;26262;49.836;6.632;2022-07-23T05:51:56;18.00;99.90
39347;DHT22;26262;49.836;6.632;2022-07-23T05:54:22;18.10;99.90
39347;DHT22;26262;49.836;6.632;2022-07-23T05:56:47;18.20;99.90
39347;DHT22;26262;49.836;6.632;2022-07-23T05:59:13;18.30;99.90
39347;DHT22;26262;49.836;6.632;2022-07-23T06:01:40;18.40;99.90
39347;DHT22;26262;49.836;6.632;2022-07-23T06:04:05;18.40;99.90
39347;DHT22;26262;49.836;6.632;2022-07-23T06:06:31;18.20;99.90
39347;DHT22;26262;49.836;6.632;2022-07-23T06:08:56;18.20;99.90
39347;DHT22;26262;49.836;6.632;2022-07-23T06:11:22;18.10;99.90
39347;DHT22;26262;49.836;6.632;2022-07-23T06:13:47;18.10;99.90
39347;DHT22;26262;49.836;6.632;2022-07-23T06:16:13;18.30;99.90
39347;DHT22;26262;49.836;6.632;2022-07-23T06:18:38;18.50;99.90
39347;DHT22;26262;49.836;6.632;2022-07-23T06:21:04;18.70;99.90
39347;DHT22;26262;49.836;6.632;2022-07-23T06:23:30;18.80;99.90
39347;DHT22;26262;49.836;6.632;2022-07-23T06:25:55;18.90;99.90
39347;DHT22;26262;49.836;6.632;2022-07-23T06:28:21;19.10;99.90
39347;DHT22;26262;49.836;6.632;2022-07-23T06:30:46;19.00;99.90
39347;DHT22;26262;49.836;6.632;2022-07-23T06:33:12;19.20;99.90
39347;DHT22;26262;49.836;6.632;2022-07-23T06:35:37;19.40;99.90
39347;DHT22;26262;49.836;6.632;2022-07-23T06:38:03;19.50;99.90
39347;DHT22;26262;49.836;6.632;2022-07-23T06:40:28;19.60;99.90
39347;DHT22;26262;49.836;6.632;2022-07-23T06:42:54;19.70;99.90
39347;DHT22;26262;49.836;6.632;2022-07-23T06:45:20;19.80;99.90
39347;DHT22;26262;49.836;6.632;2022-07-23T06:47:45;20.00;99.90
39347;DHT22;26262;49.836;6.632;2022-07-23T06:50:11;20.10;99.90
39347;DHT22;26262;49.836;6.632;2022-07-23T06:52:36;20.20;99.90
39347;DHT22;26262;49.836;6.632;2022-07-23T06:55:02;20.40;99.90
39347;DHT22;26262;49.836;6.632;2022-07-23T06:57:28;20.30;99.90
39347;DHT22;26262;49.836;6.632;2022-07-23T06:59:53;20.40;99.90
39347;DHT22;26262;49.836;6.632;2022-07-23T07:02:19;20.60;99.90
39347;DHT22;26262;49.836;6.632;2022-07-23T07:04:44;20.60;99.90
39347;DHT22;26262;49.836;6.632;2022-07-23T07:07:10;20.60;99.90
39347;DHT22;26262;49.836;6.632;2022-07-23T07:09:37;20.60;99.90
39347;DHT22;26262;49.836;6.632;2022-07-23T07:12:03;20.70;99.90
39347;DHT22;26262;49.836;6.632;2022-07-23T07:14:29;20.70;99.90
39347;DHT22;26262;49.836;6.632;2022-07-23T07:16:54;20.80;99.90
39347;DHT22;26262;49.836;6.632;2022-07-23T07:19:20;20.90;99.90
39347;DHT22;26262;49.836;6.632;2022-07-23T07:21:45;20.90;99.90
39347;DHT22;26262;49.836;6.632;2022-07-23T07:24:11;21.10;99.90
39347;DHT22;26262;49.836;6.632;2022-07-23T07:26:37;21.20;99.90
39347;DHT22;26262;49.836;6.632;2022-07-23T07:29:04;21.30;99.90
39347;DHT22;26262;49.836;6.632;2022-07-23T07:31:29;21.30;99.90
39347;DHT22;26262;49.836;6.632;2022-07-23T07:33:55;21.40;99.90
39347;DHT22;26262;49.836;6.632;2022-07-23T07:36:22;21.20;99.90
39347;DHT22;26262;49.836;6.632;2022-07-23T07:38:47;21.30;99.90
39347;DHT22;26262;49.836;6.632;2022-07-23T07:41:13;21.20;99.90
39347;DHT22;26262;49.836;6.632;2022-07-23T07:43:38;21.20;99.90
39347;DHT22;26262;49.836;6.632;2022-07-23T07:46:04;21.30;99.90
39347;DHT22;26262;49.836;6.632;2022-07-23T07:48:29;21.50;99.90
39347;DHT22;26262;49.836;6.632;2022-07-23T07:50:55;21.70;99.90
39347;DHT22;26262;49.836;6.632;2022-07-23T07:53:21;21.90;99.90
39347;DHT22;26262;49.836;6.632;2022-07-23T07:55:46;22.10;99.90
39347;DHT22;26262;49.836;6.632;2022-07-23T07:58:12;22.10;99.90
39347;DHT22;26262;49.836;6.632;2022-07-23T08:00:37;22.10;99.90
39347;DHT22;26262;49.836;6.632;2022-07-23T08:03:03;21.90;99.80
39347;DHT22;26262;49.836;6.632;2022-07-23T08:05:29;21.90;99.90
39347;DHT22;26262;49.836;6.632;2022-07-23T08:07:56;22.00;99.70
39347;DHT22;26262;49.836;6.632;2022-07-23T08:10:23;22.00;99.30
39347;DHT22;26262;49.836;6.632;2022-07-23T08:12:51;22.20;99.90
39347;DHT22;26262;49.836;6.632;2022-07-23T08:15:18;22.40;99.50
39347;DHT22;26262;49.836;6.632;2022-07-23T08:17:45;22.60;99.30
39347;DHT22;26262;49.836;6.632;2022-07-23T08:20:13;22.70;97.80
39347;DHT22;26262;49.836;6.632;2022-07-23T08:22:43;22.80;97.80
39347;DHT22;26262;49.836;6.632;2022-07-23T08:25:09;23.00;97.80
39347;DHT22;26262;49.836;6.632;2022-07-23T08:27:35;23.10;97.80
39347;DHT22;26262;49.836;6.632;2022-07-23T08:30:01;23.10;96.90
39347;DHT22;26262;49.836;6.632;2022-07-23T08:32:26;23.20;97.20
39347;DHT22;26262;49.836;6.632;2022-07-23T08:34:52;23.30;97.00
39347;DHT22;26262;49.836;6.632;2022-07-23T08:37:17;23.40;96.70
39347;DHT22;26262;49.836;6.632;2022-07-23T08:39:43;23.40;95.50
39347;DHT22;26262;49.836;6.632;2022-07-23T08:42:08;23.40;96.40
39347;DHT22;26262;49.836;6.632;2022-07-23T08:44:35;23.40;95.80
39347;DHT22;26262;49.836;6.632;2022-07-23T08:47:01;23.50;95.10
39347;DHT22;26262;49.836;6.632;2022-07-23T08:49:27;23.60;95.30
39347;DHT22;26262;49.836;6.632;2022-07-23T08:51:54;23.40;94.60
39347;DHT22;26262;49.836;6.632;2022-07-23T08:54:21;23.60;94.80
39347;DHT22;26262;49.836;6.632;2022-07-23T08:56:48;23.50;94.70
39347;DHT22;26262;49.836;6.632;2022-07-23T08:59:14;23.60;94.20
39347;DHT22;26262;49.836;6.632;2022-07-23T09:01:40;23.70;94.10
39347;DHT22;26262;49.836;6.632;2022-07-23T09:04:05;23.60;94.00
39347;DHT22;26262;49.836;6.632;2022-07-23T09:06:31;23.80;94.80
39347;DHT22;26262;49.836;6.632;2022-07-23T09:08:56;23.80;93.80
39347;DHT22;26262;49.836;6.632;2022-07-23T09:11:22;24.10;93.80
39347;DHT22;26262;49.836;6.632;2022-07-23T09:13:54;24.30;93.20
39347;DHT22;26262;49.836;6.632;2022-07-23T09:16:29;24.40;92.90
39347;DHT22;26262;49.836;6.632;2022-07-23T09:19:00;24.40;93.30
39347;DHT22;26262;49.836;6.632;2022-07-23T09:21:33;24.60;93.00
39347;DHT22;26262;49.836;6.632;2022-07-23T09:24:02;24.80;92.40
39347;DHT22;26262;49.836;6.632;2022-07-23T09:26:38;24.70;91.90
39347;DHT22;26262;49.836;6.632;2022-07-23T09:29:12;25.00;93.00
39347;DHT22;26262;49.836;6.632;2022-07-23T09:31:58;25.20;92.20
39347;DHT22;26262;49.836;6.632;2022-07-23T09:34:29;25.30;91.80
39347;DHT22;26262;49.836;6.632;2022-07-23T09:37:09;25.10;92.20
39347;DHT22;26262;49.836;6.632;2022-07-23T09:39:35;25.30;92.20
39347;DHT22;26262;49.836;6.632;2022-07-23T09:42:21;24.80;91.80
39347;DHT22;26262;49.836;6.632;2022-07-23T09:44:52;25.10;91.90
39347;DHT22;26262;49.836;6.632;2022-07-23T09:47:18;25.10;92.30
39347;DHT22;26262;49.836;6.632;2022-07-23T09:52:33;25.40;92.40
39347;DHT22;26262;49.836;6.632;2022-07-23T09:55:04;25.70;91.30
39347;DHT22;26262;49.836;6.632;2022-07-23T09:57:31;25.80;92.30
39347;DHT22;26262;49.836;6.632;2022-07-23T10:00:04;25.70;90.60
39347;DHT22;26262;49.836;6.632;2022-07-23T10:02:32;25.30;90.60
39347;DHT22;26262;49.836;6.632;2022-07-23T10:04:58;25.50;91.60
39347;DHT22;26262;49.836;6.632;2022-07-23T10:07:26;26.00;91.60
39347;DHT22;26262;49.836;6.632;2022-07-23T10:09:52;26.30;90.10
39347;DHT22;26262;49.836;6.632;2022-07-23T10:12:19;26.50;90.90
39347;DHT22;26262;49.836;6.632;2022-07-23T10:15:06;26.70;90.00
39347;DHT22;26262;49.836;6.632;2022-07-23T10:17:32;26.90;90.30
39347;DHT22;26262;49.836;6.632;2022-07-23T10:19:58;27.30;89.90
39347;DHT22;26262;49.836;6.632;2022-07-23T10:22:27;27.80;89.30
39347;DHT22;26262;49.836;6.632;2022-07-23T10:27:54;27.80;87.00
39347;DHT22;26262;49.836;6.632;2022-07-23T10:32:53;28.00;85.20
39347;DHT22;26262;49.836;6.632;2022-07-23T10:35:57;28.40;86.40
39347;DHT22;26262;49.836;6.632;2022-07-23T10:41:38;29.10;83.60
39347;DHT22;26262;49.836;6.632;2022-07-23T10:44:13;29.60;83.20
39347;DHT22;26262;49.836;6.632;2022-07-23T10:46:57;29.80;82.10
39347;DHT22;26262;49.836;6.632;2022-07-23T10:49:37;30.10;80.70
39347;DHT22;26262;49.836;6.632;2022-07-23T10:52:15;30.40;80.30
39347;DHT22;26262;49.836;6.632;2022-07-23T10:54:51;30.60;78.20
39347;DHT22;26262;49.836;6.632;2022-07-23T10:57:27;30.60;77.70
39347;DHT22;26262;49.836;6.632;2022-07-23T11:02:42;30.70;77.30
39347;DHT22;26262;49.836;6.632;2022-07-23T11:05:17;30.00;76.30
39347;DHT22;26262;49.836;6.632;2022-07-23T11:10:35;29.40;78.00
39347;DHT22;26262;49.836;6.632;2022-07-23T11:31:55;31.90;70.80
39347;DHT22;26262;49.836;6.632;2022-07-23T11:34:32;32.00;72.10
39347;DHT22;26262;49.836;6.632;2022-07-23T11:36:59;32.30;70.80
39347;DHT22;26262;49.836;6.632;2022-07-23T11:39:26;32.40;69.30
39347;DHT22;26262;49.836;6.632;2022-07-23T11:41:53;32.20;71.20
39347;DHT22;26262;49.836;6.632;2022-07-23T11:44:26;32.30;70.30
39347;DHT22;26262;49.836;6.632;2022-07-23T11:47:00;32.20;68.80
39347;DHT22;26262;49.836;6.632;2022-07-23T11:49:27;32.00;67.50
39347;DHT22;26262;49.836;6.632;2022-07-23T11:52:07;31.30;68.70
39347;DHT22;26262;49.836;6.632;2022-07-23T11:54:34;31.00;69.50
39347;DHT22;26262;49.836;6.632;2022-07-23T11:57:03;31.20;70.90
39347;DHT22;26262;49.836;6.632;2022-07-23T11:59:33;31.00;70.00
39347;DHT22;26262;49.836;6.632;2022-07-23T12:02:03;31.10;69.90
39347;DHT22;26262;49.836;6.632;2022-07-23T12:04:45;30.90;70.00
39347;DHT22;26262;49.836;6.632;2022-07-23T12:07:26;30.90;70.10
39347;DHT22;26262;49.836;6.632;2022-07-23T12:09:53;30.80;70.10
39347;DHT22;26262;49.836;6.632;2022-07-23T12:12:20;30.70;69.20
39347;DHT22;26262;49.836;6.632;2022-07-23T12:14:53;30.10;69.80
39347;DHT22;26262;49.836;6.632;2022-07-23T12:17:20;30.60;69.60
39347;DHT22;26262;49.836;6.632;2022-07-23T12:19:47;29.40;70.20
39347;DHT22;26262;49.836;6.632;2022-07-23T12:22:12;28.90;71.90
39347;DHT22;26262;49.836;6.632;2022-07-23T12:27:23;29.60;71.80
39347;DHT22;26262;49.836;6.632;2022-07-23T12:29:49;30.00;72.70
39347;DHT22;26262;49.836;6.632;2022-07-23T12:32:26;30.80;70.50
39347;DHT22;26262;49.836;6.632;2022-07-23T12:35:07;30.80;70.10
39347;DHT22;26262;49.836;6.632;2022-07-23T12:37:38;30.60;69.40
39347;DHT22;26262;49.836;6.632;2022-07-23T12:40:28;30.30;69.20
39347;DHT22;26262;49.836;6.632;2022-07-23T12:43:06;29.80;69.40
39347;DHT22;26262;49.836;6.632;2022-07-23T12:48:53;30.50;69.00
39347;DHT22;26262;49.836;6.632;2022-07-23T12:53:49;30.70;67.70
39347;DHT22;26262;49.836;6.632;2022-07-23T12:56:20;30.50;65.90
39347;DHT22;26262;49.836;6.632;2022-07-23T12:58:51;31.10;66.40
39347;DHT22;26262;49.836;6.632;2022-07-23T13:04:01;31.00;65.60
39347;DHT22;26262;49.836;6.632;2022-07-23T13:06:29;31.10;65.70
39347;DHT22;26262;49.836;6.632;2022-07-23T13:08:55;31.50;65.90
39347;DHT22;26262;49.836;6.632;2022-07-23T13:11:21;32.20;66.20
39347;DHT22;26262;49.836;6.632;2022-07-23T13:13:46;31.50;65.30
39347;DHT22;26262;49.836;6.632;2022-07-23T13:16:12;32.00;65.50
39347;DHT22;26262;49.836;6.632;2022-07-23T13:18:37;32.30;64.60
39347;DHT22;26262;49.836;6.632;2022-07-23T13:21:03;32.30;63.20
39347;DHT22;26262;49.836;6.632;2022-07-23T13:23:29;31.60;64.10
39347;DHT22;26262;49.836;6.632;2022-07-23T13:25:54;31.70;62.60
39347;DHT22;26262;49.836;6.632;2022-07-23T13:28:22;31.50;64.60
39347;DHT22;26262;49.836;6.632;2022-07-23T13:30:49;31.10;63.70
39347;DHT22;26262;49.836;6.632;2022-07-23T13:33:20;31.30;64.00
39347;DHT22;26262;49.836;6.632;2022-07-23T13:35:46;31.10;65.20
39347;DHT22;26262;49.836;6.632;2022-07-23T13:38:12;31.30;64.40
39347;DHT22;26262;49.836;6.632;2022-07-23T13:40:39;31.30;65.50
39347;DHT22;26262;49.836;6.632;2022-07-23T13:43:06;30.70;64.50
39347;DHT22;26262;49.836;6.632;2022-07-23T13:45:33;30.50;63.60
39347;DHT22;26262;49.836;6.632;2022-07-23T13:47:58;30.30;66.30
39347;DHT22;26262;49.836;6.632;2022-07-23T13:50:24;30.80;65.20
39347;DHT22;26262;49.836;6.632;2022-07-23T13:52:50;31.30;66.90
39347;DHT22;26262;49.836;6.632;2022-07-23T13:55:15;31.00;65.10
39347;DHT22;26262;49.836;6.632;2022-07-23T13:57:41;31.20;67.60
39347;DHT22;26262;49.836;6.632;2022-07-23T14:00:08;30.60;65.70
39347;DHT22;26262;49.836;6.632;2022-07-23T14:02:36;30.40;65.80
39347;DHT22;26262;49.836;6.632;2022-07-23T14:05:04;30.50;66.70
39347;DHT22;26262;49.836;6.632;2022-07-23T14:07:29;30.90;66.40
39347;DHT22;26262;49.836;6.632;2022-07-23T14:09:55;31.40;65.50
39347;DHT22;26262;49.836;6.632;2022-07-23T14:12:20;31.90;65.10
39347;DHT22;26262;49.836;6.632;2022-07-23T14:14:46;32.30;64.10
39347;DHT22;26262;49.836;6.632;2022-07-23T14:17:11;32.70;62.80
39347;DHT22;26262;49.836;6.632;2022-07-23T14:19:37;33.00;63.30
39347;DHT22;26262;49.836;6.632;2022-07-23T14:22:03;33.20;64.10
39347;DHT22;26262;49.836;6.632;2022-07-23T14:24:28;33.00;63.20
39347;DHT22;26262;49.836;6.632;2022-07-23T14:26:54;33.10;62.40
39347;DHT22;26262;49.836;6.632;2022-07-23T14:29:20;31.80;62.10
39347;DHT22;26262;49.836;6.632;2022-07-23T14:31:45;31.90;63.60
39347;DHT22;26262;49.836;6.632;2022-07-23T14:34:11;31.80;64.10
39347;DHT22;26262;49.836;6.632;2022-07-23T14:36:37;31.80;64.10
39347;DHT22;26262;49.836;6.632;2022-07-23T14:39:03;31.50;62.80
39347;DHT22;26262;49.836;6.632;2022-07-23T14:41:29;31.40;62.90
39347;DHT22;26262;49.836;6.632;2022-07-23T14:43:55;30.90;63.60
39347;DHT22;26262;49.836;6.632;2022-07-23T14:46:21;31.20;64.10
39347;DHT22;26262;49.836;6.632;2022-07-23T14:48:46;31.10;63.50
39347;DHT22;26262;49.836;6.632;2022-07-23T14:51:12;31.40;65.50
39347;DHT22;26262;49.836;6.632;2022-07-23T14:53:37;31.80;65.40
39347;DHT22;26262;49.836;6.632;2022-07-23T14:56:04;31.90;64.00
39347;DHT22;26262;49.836;6.632;2022-07-23T14:58:30;31.90;63.70
39347;DHT22;26262;49.836;6.632;2022-07-23T15:00:55;31.60;63.80
39347;DHT22;26262;49.836;6.632;2022-07-23T15:03:21;31.60;64.60
39347;DHT22;26262;49.836;6.632;2022-07-23T15:05:46;32.00;64.30
39347;DHT22;26262;49.836;6.632;2022-07-23T15:08:12;32.20;65.20
39347;DHT22;26262;49.836;6.632;2022-07-23T15:10:37;32.00;63.70
39347;DHT22;26262;49.836;6.632;2022-07-23T15:13:03;32.00;63.80
39347;DHT22;26262;49.836;6.632;2022-07-23T15:15:29;31.80;63.50
39347;DHT22;26262;49.836;6.632;2022-07-23T15:17:55;31.00;64.30
39347;DHT22;26262;49.836;6.632;2022-07-23T15:20:21;30.80;66.10
39347;DHT22;26262;49.836;6.632;2022-07-23T15:22:46;30.80;64.80
39347;DHT22;26262;49.836;6.632;2022-07-23T15:25:13;31.10;66.10
39347;DHT22;26262;49.836;6.632;2022-07-23T15:27:39;31.20;64.60
39347;DHT22;26262;49.836;6.632;2022-07-23T15:30:06;31.20;65.00
39347;DHT22;26262;49.836;6.632;2022-07-23T15:32:32;30.70;63.40
39347;DHT22;26262;49.836;6.632;2022-07-23T15:34:57;30.70;64.40
39347;DHT22;26262;49.836;6.632;2022-07-23T15:37:23;30.10;64.80
39347;DHT22;26262;49.836;6.632;2022-07-23T15:39:49;29.80;64.60
39347;DHT22;26262;49.836;6.632;2022-07-23T15:42:15;29.90;65.20
39347;DHT22;26262;49.836;6.632;2022-07-23T15:44:41;30.30;66.40
39347;DHT22;26262;49.836;6.632;2022-07-23T15:47:14;30.40;65.70
39347;DHT22;26262;49.836;6.632;2022-07-23T15:49:40;29.80;64.90
39347;DHT22;26262;49.836;6.632;2022-07-23T15:52:06;30.00;66.30
39347;DHT22;26262;49.836;6.632;2022-07-23T15:54:31;30.30;64.70
39347;DHT22;26262;49.836;6.632;2022-07-23T15:56:57;29.80;64.30
39347;DHT22;26262;49.836;6.632;2022-07-23T15:59:23;29.80;64.90
39347;DHT22;26262;49.836;6.632;2022-07-23T16:01:48;29.90;65.30
39347;DHT22;26262;49.836;6.632;2022-07-23T16:04:14;30.10;65.20
39347;DHT22;26262;49.836;6.632;2022-07-23T16:06:40;29.60;65.20
39347;DHT22;26262;49.836;6.632;2022-07-23T16:09:07;29.50;66.00
39347;DHT22;26262;49.836;6.632;2022-07-23T16:11:32;29.40;65.10
39347;DHT22;26262;49.836;6.632;2022-07-23T16:13:58;29.30;67.10
39347;DHT22;26262;49.836;6.632;2022-07-23T16:16:25;29.30;65.70